Time;durP1;ratioP1;P1;durP2;ratioP2;P2;SDS_P1;SDS_P2;PMS_P1;PMS_P2;Temp;Humidity;BMP_temperature;BMP_pressure;BME280_temperature;BME280_humidity;BME280_pressure;Samples;Min_cycle;Max_cycle;Signal;HPM_P1;HPM_P2
2024/01/21 00:03:36;;;;;;;15.40;8.50;;;;;;;0.44;82.05;101681.45;183746;1233;44408;-81
2024/01/21 00:07:38;;;;;;;17.60;8.00;;;;;;;0.38;83.08;101677.87;183357;1233;58005;-81
2024/01/21 00:11:40;;;;;;;19.90;9.40;;;;;;;0.35;84.20;101678.45;183028;1232;45954;-81
2024/01/21 00:15:42;;;;;;;15.20;8.70;;;;;;;0.34;84.85;101676.54;184282;1233;44730;-81
2024/01/21 00:19:44;;;;;;;15.40;9.60;;;;;;;0.35;85.24;101673.90;181269;1234;46008;-81
2024/01/21 00:23:46;;;;;;;14.40;9.10;;;;;;;0.39;85.61;101676.09;181444;1236;46124;-81
2024/01/21 00:27:49;;;;;;;20.20;8.40;;;;;;;0.49;85.56;101676.29;181777;1234;59875;-81
2024/01/21 00:31:50;;;;;;;16.70;9.70;;;;;;;0.58;85.60;101680.84;181522;1236;46179;-83
2024/01/21 00:35:52;;;;;;;18.60;8.70;;;;;;;0.64;85.67;101680.23;182857;1236;45931;-81
2024/01/21 00:39:54;;;;;;;13.40;8.40;;;;;;;0.67;85.72;101678.41;182486;1234;46296;-83
2024/01/21 00:43:55;;;;;;;22.00;8.30;;;;;;;0.72;85.35;101680.95;182768;1233;46005;-83
2024/01/21 00:47:57;;;;;;;10.70;6.70;;;;;;;0.75;84.96;101687.35;182166;1234;58279;-82
2024/01/21 00:52:00;;;;;;;15.90;7.30;;;;;;;0.77;84.59;101696.39;181772;1233;46022;-82
2024/01/21 00:56:01;;;;;;;13.70;7.20;;;;;;;0.78;84.28;101700.92;182388;1233;46478;-83
2024/01/21 01:00:04;;;;;;;7.20;4.70;;;;;;;0.66;83.36;101698.69;182366;1233;46046;-84
2024/01/21 01:04:06;;;;;;;11.60;6.40;;;;;;;0.44;83.22;101698.90;182237;1236;46007;-84
2024/01/21 01:08:08;;;;;;;9.50;6.10;;;;;;;0.31;82.51;101701.36;182521;1233;57959;-84
2024/01/21 01:12:10;;;;;;;7.20;4.40;;;;;;;0.18;82.00;101700.36;182397;1234;46042;-83
2024/01/21 01:16:12;;;;;;;10.60;4.80;;;;;;;-0.02;81.51;101701.70;182462;1233;46074;-84
2024/01/21 01:20:14;;;;;;;7.60;5.30;;;;;;;-0.18;81.81;101698.09;182313;1233;45967;-85
2024/01/21 01:24:16;;;;;;;11.30;6.90;;;;;;;-0.23;82.06;101698.16;182711;1234;46077;-84
2024/01/21 01:28:18;;;;;;;8.90;4.60;;;;;;;-0.19;82.09;101700.73;182474;1234;59959;-84
2024/01/21 01:32:19;;;;;;;6.10;4.20;;;;;;;-0.24;81.09;101699.92;182313;1234;45948;-81
2024/01/21 01:36:21;;;;;;;13.40;4.50;;;;;;;-0.34;81.19;101704.41;181642;1234;46100;-81
2024/01/21 01:40:24;;;;;;;16.40;6.20;;;;;;;-0.47;82.19;101703.89;181475;1233;46072;-81
2024/01/21 01:44:26;;;;;;;6.80;3.70;;;;;;;-0.52;82.62;101697.14;181586;1236;46077;-82
2024/01/21 01:48:29;;;;;;;6.10;4.70;;;;;;;-0.50;82.52;101695.73;181731;1236;59490;-81
2024/01/21 01:52:32;;;;;;;9.00;6.80;;;;;;;-0.51;82.23;101695.39;181848;1236;45944;-81
2024/01/21 01:56:34;;;;;;;7.90;6.00;;;;;;;-0.51;81.80;101695.21;181517;1233;46047;-81
2024/01/21 02:00:36;;;;;;;11.40;7.50;;;;;;;-0.53;81.53;101697.17;181499;1236;46177;-82
2024/01/21 02:04:38;;;;;;;12.30;7.60;;;;;;;-0.52;81.60;101696.63;181757;1236;46065;-80
2024/01/21 02:08:40;;;;;;;12.30;10.50;;;;;;;-0.54;81.39;101701.02;183978;1233;58116;-81
2024/01/21 02:12:44;;;;;;;10.40;5.60;;;;;;;-0.64;81.87;101701.65;183338;1234;45996;-80
2024/01/21 02:16:46;;;;;;;9.10;6.00;;;;;;;-0.82;82.67;101704.31;181708;1234;46077;-80
2024/01/21 02:20:49;;;;;;;11.20;7.60;;;;;;;-1.10;84.13;101706.34;181676;1233;45959;-83
2024/01/21 02:24:50;;;;;;;9.50;5.40;;;;;;;-1.22;85.95;101709.77;182265;1233;45964;-83
2024/01/21 02:28:54;;;;;;;11.70;6.70;;;;;;;-1.31;86.68;101715.09;182334;1236;59232;-83
2024/01/21 02:32:56;;;;;;;7.40;5.80;;;;;;;-1.46;87.64;101710.17;182690;1233;46067;-84
2024/01/21 02:36:58;;;;;;;11.60;6.60;;;;;;;-1.54;87.38;101710.59;182281;1236;46029;-84
2024/01/21 02:41:02;;;;;;;8.60;6.20;;;;;;;-1.55;87.38;101709.04;182347;1234;45999;-84
2024/01/21 02:45:04;;;;;;;6.10;4.40;;;;;;;-1.53;86.88;101704.85;182384;1234;45996;-83
2024/01/21 02:49:06;;;;;;;10.30;6.40;;;;;;;-1.60;86.75;101700.70;182804;1235;59419;-84
2024/01/21 02:53:07;;;;;;;10.10;7.60;;;;;;;-1.69;86.99;101704.45;182186;1233;46067;-84
2024/01/21 02:57:09;;;;;;;14.80;7.80;;;;;;;-1.81;87.67;101708.02;182232;1236;46053;-83
2024/01/21 03:01:11;;;;;;;13.20;7.40;;;;;;;-2.01;90.00;101712.31;181548;1234;45998;-84
2024/01/21 03:05:14;;;;;;;10.40;4.70;;;;;;;-2.13;89.95;101719.35;182589;1232;45988;-82
2024/01/21 03:09:16;;;;;;;16.30;6.80;;;;;;;-2.28;89.84;101713.88;182020;1232;58342;-82
2024/01/21 03:13:17;;;;;;;11.90;7.30;;;;;;;-2.46;89.79;101712.05;181673;1234;46072;-82
2024/01/21 03:17:19;;;;;;;10.20;6.60;;;;;;;-2.56;89.78;101710.35;182436;1233;46084;-82
2024/01/21 03:21:22;;;;;;;10.80;6.40;;;;;;;-2.58;89.66;101711.23;181552;1234;46081;-81
2024/01/21 03:25:23;;;;;;;11.70;6.30;;;;;;;-2.59;90.18;101709.50;181552;1234;46101;-81
2024/01/21 03:29:25;;;;;;;10.70;6.60;;;;;;;-2.69;90.94;101712.51;181454;1234;58344;-81
2024/01/21 03:33:27;;;;;;;12.50;9.00;;;;;;;-2.79;91.41;101707.32;181746;1236;46065;-83
2024/01/21 03:37:33;;;;;;;17.20;8.40;;;;;;;-2.83;91.57;101714.27;182577;1234;46067;-82
2024/01/21 03:41:36;;;;;;;16.30;8.00;;;;;;;-2.99;92.38;101718.14;182441;1239;46116;-83
2024/01/21 03:45:38;;;;;;;16.80;10.40;;;;;;;-3.20;93.95;101715.40;182238;1235;45948;-83
2024/01/21 03:49:40;;;;;;;11.60;7.30;;;;;;;-3.42;95.38;101711.26;181843;1234;59483;-83
2024/01/21 03:53:43;;;;;;;17.80;10.10;;;;;;;-3.55;96.72;101708.13;182309;1234;45913;-81
2024/01/21 03:57:45;;;;;;;15.40;9.60;;;;;;;-3.68;97.53;101710.23;182756;1233;46005;-82
2024/01/21 04:01:46;;;;;;;23.00;11.70;;;;;;;-3.72;96.86;101711.45;184159;1236;46187;-82
2024/01/21 04:05:48;;;;;;;19.30;9.90;;;;;;;-3.78;96.04;101706.76;182319;1233;46066;-81
2024/01/21 04:09:50;;;;;;;21.40;11.30;;;;;;;-3.87;96.24;101705.88;182015;1236;59332;-81
2024/01/21 04:13:52;;;;;;;16.00;10.30;;;;;;;-3.96;97.29;101700.15;181514;1236;46078;-82
2024/01/21 04:17:53;;;;;;;16.30;10.90;;;;;;;-4.00;99.83;101697.20;182161;1234;46087;-80
2024/01/21 04:21:55;;;;;;;26.20;13.40;;;;;;;-3.94;97.63;101695.65;181323;1236;46074;-81
2024/01/21 04:25:57;;;;;;;19.30;12.50;;;;;;;-3.95;98.75;101694.77;181842;1234;46067;-80
2024/01/21 04:30:02;;;;;;;19.80;10.20;;;;;;;-3.98;99.91;101699.11;182527;1234;59150;-80
2024/01/21 04:34:04;;;;;;;16.90;11.30;;;;;;;-3.98;100.00;101697.71;181549;1236;46075;-83
2024/01/21 04:38:07;;;;;;;21.90;11.60;;;;;;;-3.95;99.45;101692.00;182347;1234;46414;-83
2024/01/21 04:42:08;;;;;;;22.80;10.20;;;;;;;-3.95;98.06;101689.75;182322;1233;46056;-84
2024/01/21 04:46:12;;;;;;;22.20;11.60;;;;;;;-4.04;97.20;101688.18;182175;1234;45989;-83
2024/01/21 04:50:14;;;;;;;17.40;12.00;;;;;;;-4.08;97.37;101684.70;182389;1232;57986;-81
2024/01/21 04:54:16;;;;;;;21.10;12.50;;;;;;;-4.15;98.27;101683.83;181714;1234;46065;-81
2024/01/21 04:58:18;;;;;;;28.00;12.80;;;;;;;-4.19;98.51;101687.46;181694;1233;46072;-81
2024/01/21 05:02:19;;;;;;;24.80;12.90;;;;;;;-4.18;99.32;101691.45;181575;1234;45957;-81
2024/01/21 05:06:22;;;;;;;18.90;11.70;;;;;;;-4.16;99.11;101686.95;181812;1236;46072;-81
2024/01/21 05:10:24;;;;;;;25.40;13.50;;;;;;;-4.18;100.00;101678.45;181473;1236;58392;-81
2024/01/21 05:14:26;;;;;;;20.00;12.10;;;;;;;-4.09;100.00;101666.18;181443;1236;46797;-80
2024/01/21 05:18:28;;;;;;;22.80;15.00;;;;;;;-4.03;100.00;101650.74;181503;1236;45954;-83
2024/01/21 05:22:30;;;;;;;23.00;11.70;;;;;;;-3.94;99.96;101650.23;182366;1234;45957;-83
2024/01/21 05:26:32;;;;;;;21.90;12.30;;;;;;;-3.84;99.55;101647.64;182067;1233;46153;-83
2024/01/21 05:30:34;;;;;;;25.70;14.90;;;;;;;-3.78;99.14;101653.88;182265;1236;56958;-82
2024/01/21 05:34:36;;;;;;;26.10;13.90;;;;;;;-3.74;98.88;101653.35;181542;1236;46702;-82
2024/01/21 05:38:38;;;;;;;23.30;11.60;;;;;;;-3.70;97.87;101654.05;181614;1234;46061;-82
2024/01/21 05:42:40;;;;;;;30.20;15.50;;;;;;;-3.66;97.88;101658.73;182342;1236;45991;-82
2024/01/21 05:46:41;;;;;;;21.50;13.70;;;;;;;-3.66;97.99;101661.34;183686;1235;46068;-82
2024/01/21 05:50:43;;;;;;;25.60;13.80;;;;;;;-3.63;97.75;101660.46;182641;1239;57974;-81
2024/01/21 05:54:45;;;;;;;28.50;17.40;;;;;;;-3.63;97.73;101656.65;181111;1237;46054;-82
2024/01/21 05:58:47;;;;;;;35.20;19.40;;;;;;;-3.62;97.85;101653.88;181458;1238;46040;-83
2024/01/21 06:02:50;;;;;;;27.30;15.00;;;;;;;-3.58;97.53;101649.36;182267;1235;45927;-82
2024/01/21 06:06:53;;;;;;;42.10;22.50;;;;;;;-3.53;98.19;101649.52;182267;1238;46658;-83
2024/01/21 06:10:55;;;;;;;57.00;27.00;;;;;;;-3.40;97.99;101651.23;182566;1235;57986;-84
2024/01/21 06:14:57;;;;;;;66.60;34.30;;;;;;;-3.28;97.14;101656.07;182143;1235;45986;-82
2024/01/21 06:18:59;;;;;;;58.00;30.90;;;;;;;-3.19;96.23;101659.70;181186;1235;46165;-82
2024/01/21 06:23:01;;;;;;;44.60;22.30;;;;;;;-3.22;94.90;101664.22;181539;1236;46129;-82
2024/01/21 06:27:04;;;;;;;40.50;24.90;;;;;;;-3.31;95.09;101658.86;182428;1235;46072;-81
2024/01/21 06:31:05;;;;;;;50.50;28.60;;;;;;;-3.25;94.90;101663.70;182446;1235;59434;-82
2024/01/21 06:35:07;;;;;;;40.90;23.40;;;;;;;-3.24;94.40;101665.61;182222;1237;45880;-82
2024/01/21 06:39:09;;;;;;;39.50;22.80;;;;;;;-3.29;95.47;101662.33;182399;1235;45964;-83
2024/01/21 06:43:11;;;;;;;37.70;21.10;;;;;;;-3.25;95.79;101662.33;182353;1238;45838;-83
2024/01/21 06:47:14;;;;;;;59.20;24.70;;;;;;;-3.24;96.63;101660.92;182248;1237;46139;-83
2024/01/21 06:51:31;;;;;;;40.50;22.50;;;;;;;-3.24;95.97;101661.45;182366;1235;59162;-83
2024/01/21 06:55:33;;;;;;;33.70;20.90;;;;;;;-3.21;95.11;101668.04;182084;1237;46066;-83
2024/01/21 06:59:35;;;;;;;54.40;26.50;;;;;;;-3.22;94.90;101669.08;182252;1235;46084;-83
2024/01/21 07:03:38;;;;;;;33.80;18.40;;;;;;;-3.26;95.03;101667.18;182235;1235;46058;-82
2024/01/21 07:07:40;;;;;;;31.20;21.40;;;;;;;-3.31;95.10;101677.08;181459;1235;45996;-84
2024/01/21 07:11:42;;;;;;;53.20;35.50;;;;;;;-3.34;95.41;101676.20;182204;1237;58086;-84
2024/01/21 07:15:45;;;;;;;33.70;19.90;;;;;;;-3.27;95.87;101675.86;182106;1238;45929;-85
2024/01/21 07:19:53;;;;;;;55.70;35.20;;;;;;;-3.19;96.37;101675.66;182277;1233;45961;-85
2024/01/21 07:23:56;;;;;;;34.30;20.40;;;;;;;-3.05;96.34;101677.36;182199;1235;45901;-84
2024/01/21 07:27:58;;;;;;;40.20;22.10;;;;;;;-2.94;95.57;101676.11;182274;1234;45948;-83
2024/01/21 07:31:59;;;;;;;48.20;28.00;;;;;;;-2.85;94.78;101675.39;183558;1235;57806;-83
2024/01/21 07:36:03;;;;;;;31.50;17.70;;;;;;;-2.70;94.09;101672.04;184792;1237;45966;-84
2024/01/21 07:40:06;;;;;;;33.70;16.20;;;;;;;-2.64;93.09;101675.30;182334;1237;46168;-84
2024/01/21 07:44:09;;;;;;;26.90;17.90;;;;;;;-2.57;93.47;101676.84;182071;1235;46075;-84
2024/01/21 07:48:11;;;;;;;28.40;14.70;;;;;;;-2.44;93.41;101672.25;182371;1237;46094;-84
2024/01/21 07:52:16;;;;;;;27.50;14.50;;;;;;;-2.35;93.34;101675.33;182209;1236;59439;-85
2024/01/21 07:56:19;;;;;;;44.70;22.50;;;;;;;-2.21;93.06;101673.69;182307;1235;45966;-84
2024/01/21 08:00:22;;;;;;;77.30;37.10;;;;;;;-2.03;92.00;101675.83;182415;1235;45958;-82
2024/01/21 08:04:24;;;;;;;84.70;42.00;;;;;;;-1.93;91.40;101668.80;182179;1237;45953;-82
2024/01/21 08:08:26;;;;;;;69.90;36.90;;;;;;;-1.77;90.51;101673.20;181953;1237;45918;-82
2024/01/21 08:12:28;;;;;;;58.10;26.80;;;;;;;-1.60;90.04;101673.41;182470;1234;60452;-82
2024/01/21 08:16:29;;;;;;;51.00;25.70;;;;;;;-1.44;88.83;101669.77;182397;1236;43988;-81
2024/01/21 08:20:31;;;;;;;60.80;34.50;;;;;;;-1.28;88.30;101660.40;183157;1235;44098;-81
2024/01/21 08:24:35;;;;;;;43.00;23.70;;;;;;;-1.22;87.81;101658.94;181625;1240;46408;-82
2024/01/21 08:28:40;;;;;;;40.10;23.00;;;;;;;-1.14;87.31;101648.25;182247;1235;46199;-82
2024/01/21 08:32:41;;;;;;;49.30;26.10;;;;;;;-1.04;87.07;101642.72;182335;1238;58088;-82
2024/01/21 08:36:43;;;;;;;49.10;24.20;;;;;;;-0.92;86.81;101632.15;181372;1235;46100;-81
2024/01/21 08:40:45;;;;;;;44.90;22.40;;;;;;;-0.82;86.54;101631.67;181517;1237;46059;-81
2024/01/21 08:44:47;;;;;;;33.30;15.40;;;;;;;-0.70;86.53;101619.14;181411;1235;45955;-82
2024/01/21 08:48:49;;;;;;;39.10;20.70;;;;;;;-0.66;86.61;101610.21;182434;1235;45959;-82
2024/01/21 08:52:50;;;;;;;47.40;23.20;;;;;;;-0.51;86.62;101606.34;182488;1235;59360;-82
2024/01/21 08:56:52;;;;;;;124.20;64.80;;;;;;;-0.27;86.17;101616.98;181771;1235;46081;-82
2024/01/21 09:00:54;;;;;;;83.00;47.80;;;;;;;-0.00;85.39;101620.40;182666;1237;46024;-82
2024/01/21 09:04:57;;;;;;;53.40;27.80;;;;;;;0.23;84.17;101620.35;181687;1237;46003;-82
2024/01/21 09:08:59;;;;;;;26.80;14.70;;;;;;;0.33;83.97;101606.59;182746;1234;46045;-82
2024/01/21 09:13:01;;;;;;;34.30;15.60;;;;;;;0.53;83.79;101601.69;183301;1235;58107;-81
2024/01/21 09:17:03;;;;;;;28.90;17.00;;;;;;;0.72;83.56;101601.84;182434;1235;45963;-82
2024/01/21 09:21:04;;;;;;;25.30;15.20;;;;;;;0.92;83.46;101601.47;183269;1235;46103;-81
2024/01/21 09:25:10;;;;;;;21.70;12.50;;;;;;;1.12;83.65;101596.52;185117;1235;45852;-82
2024/01/21 09:29:12;;;;;;;26.30;14.30;;;;;;;1.30;83.94;101593.15;182247;1237;46036;-81
2024/01/21 09:33:13;;;;;;;52.50;23.50;;;;;;;1.48;83.96;101582.95;182181;1233;59514;-82
2024/01/21 09:37:15;;;;;;;38.30;24.60;;;;;;;1.71;83.57;101583.29;183047;1235;45979;-81
2024/01/21 09:41:17;;;;;;;33.90;17.40;;;;;;;1.97;82.55;101584.60;184236;1234;46057;-80
2024/01/21 09:45:21;;;;;;;100.40;45.20;;;;;;;2.07;81.91;101577.49;184647;1235;45930;-80
2024/01/21 09:49:24;;;;;;;260.80;115.50;;;;;;;2.10;81.83;101573.06;186189;1234;43955;-80
2024/01/21 09:53:26;;;;;;;230.00;95.60;;;;;;;2.20;82.29;101567.55;183858;1233;166172;-80
2024/01/21 09:57:29;;;;;;;149.70;68.10;;;;;;;2.58;82.48;101567.77;182090;1234;45081;-80
2024/01/21 10:01:32;;;;;;;49.70;28.70;;;;;;;3.06;81.36;101561.86;182153;1233;45976;-81
2024/01/21 10:05:34;;;;;;;32.70;20.80;;;;;;;3.43;79.77;101550.03;184217;1235;46038;-80
2024/01/21 10:09:36;;;;;;;22.90;14.40;;;;;;;3.54;78.17;101541.09;182920;1235;46124;-79
2024/01/21 10:13:42;;;;;;;21.00;13.60;;;;;;;3.63;77.67;101539.23;184561;1234;58172;-79
2024/01/21 10:17:44;;;;;;;28.00;13.90;;;;;;;3.63;77.77;101545.91;184410;1234;45948;-80
2024/01/21 10:21:46;;;;;;;18.00;14.10;;;;;;;3.73;78.21;101545.92;185485;1234;43979;-80
2024/01/21 10:25:48;;;;;;;22.30;16.60;;;;;;;3.80;77.95;101544.98;184920;1235;44286;-79
2024/01/21 10:29:50;;;;;;;32.60;19.10;;;;;;;3.96;77.71;101537.96;183475;1235;46025;-79
2024/01/21 10:33:52;;;;;;;56.00;28.40;;;;;;;4.07;77.70;101538.28;183325;1237;59899;-81
2024/01/21 10:37:55;;;;;;;57.30;32.60;;;;;;;4.18;76.87;101532.66;183924;1237;45837;-82
2024/01/21 10:41:58;;;;;;;56.00;27.10;;;;;;;4.31;76.71;101529.55;182748;1235;46179;-83
2024/01/21 10:46:02;;;;;;;44.60;22.30;;;;;;;4.36;75.81;101517.45;182735;1235;45897;-84
2024/01/21 10:50:05;;;;;;;31.80;19.90;;;;;;;4.48;75.40;101508.05;183037;1235;46002;-81
2024/01/21 10:54:08;;;;;;;22.60;11.60;;;;;;;4.58;75.13;101502.42;183028;1233;58091;-83
2024/01/21 10:58:10;;;;;;;21.40;10.20;;;;;;;4.67;73.75;101498.05;182502;1235;46091;-83
2024/01/21 11:02:13;;;;;;;21.30;12.40;;;;;;;4.75;73.51;101494.05;182577;1233;46098;-85
2024/01/21 11:06:17;;;;;;;32.00;14.50;;;;;;;4.79;73.22;101481.61;184992;1237;45878;-85
2024/01/21 11:10:22;;;;;;;23.30;12.00;;;;;;;4.90;72.40;101478.02;182653;1234;46024;-86
2024/01/21 11:14:39;;;;;;;23.70;13.10;;;;;;;4.91;72.38;101485.20;182820;1235;57409;-85
2024/01/21 11:18:43;;;;;;;17.10;10.20;;;;;;;4.94;71.93;101488.23;184402;1234;45985;-87
2024/01/21 11:22:46;;;;;;;17.40;9.90;;;;;;;5.00;70.60;101476.40;185674;1237;44712;-85
2024/01/21 11:26:48;;;;;;;28.50;16.30;;;;;;;5.00;69.95;101465.86;182452;1233;46116;-85
2024/01/21 11:30:53;;;;;;;15.80;8.30;;;;;;;4.99;68.90;101461.48;182696;1236;46005;-86
2024/01/21 11:35:07;;;;;;;9.40;6.00;;;;;;;5.00;69.39;101457.95;183385;1233;58465;-83
2024/01/21 11:39:09;;;;;;;6.80;4.50;;;;;;;4.83;69.46;101453.88;182820;1234;46087;-83
2024/01/21 11:43:15;;;;;;;10.70;5.90;;;;;;;4.83;69.81;101460.37;182772;1233;46077;-84
2024/01/21 11:47:18;;;;;;;13.50;5.00;;;;;;;4.86;69.76;101459.02;182930;1233;46075;-87
2024/01/21 11:51:21;;;;;;;4.50;3.30;;;;;;;4.92;69.32;101452.10;182472;1234;46117;-85
2024/01/21 11:55:25;;;;;;;5.30;2.50;;;;;;;4.94;69.97;101446.05;182496;1235;58945;-85
2024/01/21 11:59:29;;;;;;;11.50;6.80;;;;;;;4.86;69.25;101443.38;183090;1234;46094;-85
2024/01/21 12:03:32;;;;;;;29.30;17.60;;;;;;;4.86;68.90;101449.36;182745;1234;46444;-86
2024/01/21 12:07:36;;;;;;;55.80;28.50;;;;;;;4.81;69.04;101441.79;182671;1234;44110;-85
2024/01/21 12:11:40;;;;;;;30.00;15.80;;;;;;;4.88;69.93;101430.44;182417;1233;45962;-85
2024/01/21 12:15:43;;;;;;;22.00;9.60;;;;;;;4.92;69.19;101427.30;182301;1235;59275;-84
2024/01/21 12:19:45;;;;;;;31.70;15.50;;;;;;;4.91;70.33;101424.20;182768;1234;46059;-85
2024/01/21 12:24:00;;;;;;;67.80;31.60;;;;;;;4.91;70.43;101421.20;183481;1233;46085;-86
2024/01/21 12:28:07;;;;;;;80.40;36.40;;;;;;;4.87;70.55;101418.02;183130;1232;46134;-85
2024/01/21 12:32:09;;;;;;;39.20;20.10;;;;;;;4.87;71.30;101410.65;183136;1237;46438;-85
2024/01/21 12:36:11;;;;;;;35.20;19.10;;;;;;;4.87;71.11;101400.42;183173;1232;60418;-85
2024/01/21 12:40:14;;;;;;;76.90;32.80;;;;;;;4.83;71.49;101394.80;183382;1236;45972;-85
2024/01/21 12:44:16;;;;;;;68.10;35.80;;;;;;;4.75;72.31;101390.90;183139;1234;46003;-83
2024/01/21 12:48:18;;;;;;;46.40;22.80;;;;;;;4.69;72.21;101387.46;183246;1232;45979;-84
2024/01/21 12:52:20;;;;;;;34.10;18.40;;;;;;;4.57;72.30;101379.48;183478;1237;46085;-84
2024/01/21 12:56:22;;;;;;;79.90;38.10;;;;;;;4.49;73.24;101380.85;183365;1237;57778;-86
2024/01/21 13:00:25;;;;;;;52.40;26.70;;;;;;;4.40;74.18;101377.84;183236;1232;46075;-89
2024/01/21 13:04:30;;;;;;;39.40;22.70;;;;;;;4.34;74.42;101371.91;182810;1232;45980;-88
2024/01/21 13:08:35;;;;;;;23.60;15.10;;;;;;;4.35;73.80;101359.97;183008;1232;46008;-87
2024/01/21 13:12:38;;;;;;;46.10;24.00;;;;;;;4.27;74.60;101356.71;183291;1232;44676;-86
2024/01/21 13:16:40;;;;;;;13.10;8.10;;;;;;;4.22;75.19;101351.48;182928;1232;58377;-86
2024/01/21 13:20:42;;;;;;;32.70;17.60;;;;;;;4.20;75.97;101351.58;182798;1232;45906;-87
2024/01/21 13:24:44;;;;;;;40.80;20.40;;;;;;;4.20;76.18;101343.48;182770;1232;45999;-87
2024/01/21 13:33:08;;;;;;;46.20;23.30;;;;;;;4.32;76.08;101342.84;182663;1232;46044;-88
2024/01/21 13:37:12;;;;;;;50.10;28.50;;;;;;;4.37;76.25;101327.21;182699;1236;58063;-88
2024/01/21 13:41:14;;;;;;;49.20;24.20;;;;;;;4.37;76.11;101321.59;182561;1232;46066;-87
2024/01/21 13:45:17;;;;;;;32.30;19.90;;;;;;;4.34;76.14;101327.50;182894;1232;46190;-89
2024/01/21 13:49:19;;;;;;;35.80;19.70;;;;;;;4.32;76.01;101330.19;182706;1232;46464;-87
2024/01/21 13:53:21;;;;;;;51.20;25.70;;;;;;;4.30;75.38;101319.41;183564;1232;46020;-86
2024/01/21 13:57:23;;;;;;;40.40;23.40;;;;;;;4.19;75.96;101311.91;183214;1236;58020;-86
2024/01/21 14:01:26;;;;;;;60.80;29.20;;;;;;;4.19;75.11;101304.17;183115;1232;45980;-88
2024/01/21 14:05:29;;;;;;;42.00;26.10;;;;;;;4.19;74.19;101298.73;183006;1236;46196;-86
2024/01/21 14:09:31;;;;;;;35.10;20.30;;;;;;;4.18;74.51;101298.98;182809;1232;46446;-88
2024/01/21 14:13:34;;;;;;;40.70;25.60;;;;;;;4.11;74.89;101296.93;182964;1232;45972;-88
2024/01/21 14:17:57;;;;;;;42.30;24.70;;;;;;;4.07;75.09;101296.58;183114;1232;59332;-88
2024/01/21 14:22:00;;;;;;;37.10;22.60;;;;;;;4.12;74.96;101301.45;182965;1232;46027;-87
2024/01/21 14:26:07;;;;;;;39.60;22.30;;;;;;;4.11;74.85;101298.66;182775;1236;46107;-87
2024/01/21 14:30:15;;;;;;;31.70;20.50;;;;;;;4.04;74.46;101289.85;183019;1235;46049;-87
2024/01/21 14:34:17;;;;;;;33.10;17.20;;;;;;;3.95;74.24;101287.38;183123;1232;45877;-88
2024/01/21 14:38:19;;;;;;;28.90;14.40;;;;;;;3.96;73.90;101285.77;183286;1232;59872;-85
2024/01/21 14:42:21;;;;;;;26.20;18.30;;;;;;;3.90;72.65;101271.95;183328;1232;45866;-81
2024/01/21 14:46:23;;;;;;;33.70;21.70;;;;;;;3.82;72.72;101265.92;183821;1236;45953;-79
2024/01/21 14:50:25;;;;;;;27.20;15.10;;;;;;;3.67;73.78;101265.42;185482;1232;45994;-80
2024/01/21 14:54:26;;;;;;;25.50;13.30;;;;;;;3.49;74.48;101257.30;185521;1232;43880;-79
2024/01/21 14:58:28;;;;;;;29.50;14.10;;;;;;;3.43;74.10;101258.74;186236;1236;60458;-79
2024/01/21 15:02:30;;;;;;;25.20;15.70;;;;;;;3.38;72.86;101235.80;183530;1232;46084;-79
2024/01/21 15:06:32;;;;;;;16.40;10.30;;;;;;;3.38;71.43;101227.02;185169;1232;46084;-80
2024/01/21 15:10:34;;;;;;;21.50;11.80;;;;;;;3.39;70.79;101215.39;184360;1232;46062;-80
2024/01/21 15:14:47;;;;;;;56.00;20.80;;;;;;;3.41;69.54;101206.40;182290;1232;46126;-80
2024/01/21 15:18:48;;;;;;;80.30;33.50;;;;;;;3.42;68.35;101200.55;183244;1236;57895;-80
2024/01/21 15:22:50;;;;;;;51.40;20.30;;;;;;;3.39;68.83;101196.11;185076;1232;44083;-80
2024/01/21 15:26:53;;;;;;;69.50;23.80;;;;;;;3.35;67.70;101189.09;183654;1232;46214;-79
2024/01/21 15:30:55;;;;;;;45.40;20.40;;;;;;;3.32;67.08;101185.66;183143;1236;46093;-81
2024/01/21 15:34:57;;;;;;;27.80;12.60;;;;;;;3.31;65.88;101178.69;183870;1232;45965;-80
2024/01/21 15:38:58;;;;;;;14.10;9.70;;;;;;;3.28;64.60;101163.02;182673;1232;60112;-81
2024/01/21 15:43:00;;;;;;;26.00;11.70;;;;;;;3.30;64.31;101160.15;183344;1237;45969;-81
2024/01/21 15:47:02;;;;;;;54.40;22.00;;;;;;;3.26;64.77;101159.25;185033;1232;44398;-80
2024/01/21 15:51:05;;;;;;;54.20;22.30;;;;;;;3.21;64.01;101169.59;183159;1232;46177;-80
2024/01/21 15:55:07;;;;;;;40.00;19.10;;;;;;;3.20;63.01;101183.13;184225;1232;46003;-81
2024/01/21 15:59:09;;;;;;;26.20;14.60;;;;;;;3.21;60.03;101181.33;182707;1232;59109;-79
2024/01/21 16:03:11;;;;;;;21.30;11.40;;;;;;;3.32;58.51;101189.89;185134;1232;46050;-80
2024/01/21 16:07:17;;;;;;;26.40;13.90;;;;;;;3.39;58.80;101191.73;184365;1232;46039;-80
2024/01/21 16:11:19;;;;;;;12.30;7.10;;;;;;;3.38;60.15;101200.70;184622;1232;43978;-80
2024/01/21 16:15:21;;;;;;;30.30;13.40;;;;;;;3.29;61.02;101204.54;185352;1232;46090;-80
2024/01/21 16:19:23;;;;;;;19.90;9.70;;;;;;;3.15;61.37;101208.22;183077;1233;57154;-80
2024/01/21 16:23:25;;;;;;;13.90;8.60;;;;;;;3.11;59.82;101216.58;185161;1236;44354;-80
2024/01/21 16:27:27;;;;;;;20.80;10.30;;;;;;;3.08;61.82;101201.95;184039;1236;46122;-80
2024/01/21 16:31:35;;;;;;;13.50;6.70;;;;;;;2.97;64.38;101194.45;184680;1232;44355;-80
2024/01/21 16:35:38;;;;;;;18.30;7.90;;;;;;;2.97;63.02;101207.95;184186;1232;46100;-80
2024/01/21 16:39:40;;;;;;;12.00;8.40;;;;;;;3.02;62.80;101218.14;184344;1232;59341;-80
2024/01/21 16:43:43;;;;;;;13.00;7.30;;;;;;;3.11;61.82;101209.41;184300;1232;46081;-80
2024/01/21 16:47:44;;;;;;;14.70;7.60;;;;;;;3.21;61.06;101199.23;183869;1232;45966;-80
2024/01/21 16:52:11;;;;;;;13.50;8.20;;;;;;;3.28;61.52;101196.35;184048;1232;45948;-80
2024/01/21 16:56:13;;;;;;;14.60;9.50;;;;;;;3.36;61.97;101200.98;183350;1232;46154;-80
2024/01/21 17:00:23;;;;;;;17.90;8.20;;;;;;;3.37;62.01;101206.03;182400;1232;59488;-80
2024/01/21 17:04:26;;;;;;;13.50;8.80;;;;;;;3.34;61.99;101244.36;183313;1232;46425;-80
2024/01/21 17:08:28;;;;;;;12.60;8.10;;;;;;;3.33;62.68;101256.81;183379;1232;45882;-80
2024/01/21 17:12:36;;;;;;;13.80;8.40;;;;;;;3.22;64.03;101250.56;182995;1236;46084;-80
2024/01/21 17:16:38;;;;;;;15.50;9.10;;;;;;;3.05;64.61;101240.45;184131;1232;46189;-80
2024/01/21 17:20:39;;;;;;;22.80;14.70;;;;;;;2.95;64.95;101241.83;183362;1232;57874;-80
2024/01/21 17:24:41;;;;;;;16.00;11.20;;;;;;;2.81;65.40;101236.72;183166;1232;44069;-80
2024/01/21 17:28:45;;;;;;;22.10;12.10;;;;;;;2.71;65.33;101234.05;184781;1236;45953;-80
2024/01/21 17:32:46;;;;;;;23.40;16.50;;;;;;;2.62;65.22;101232.10;185245;1232;44037;-80
2024/01/21 17:36:51;;;;;;;18.70;15.00;;;;;;;2.57;64.81;101235.41;183194;1232;44833;-80
2024/01/21 17:40:53;;;;;;;19.50;12.20;;;;;;;2.53;64.03;101232.21;183640;1232;57357;-80
2024/01/21 17:44:55;;;;;;;11.80;8.20;;;;;;;2.55;63.36;101228.45;183672;1232;45963;-80
2024/01/21 17:48:57;;;;;;;13.30;8.70;;;;;;;2.60;63.03;101225.52;184038;1232;45950;-80
2024/01/21 17:52:59;;;;;;;21.40;11.20;;;;;;;2.59;63.13;101226.94;183446;1232;46157;-80
2024/01/21 17:57:01;;;;;;;13.90;8.00;;;;;;;2.64;62.54;101223.27;184894;1232;44715;-81
2024/01/21 18:01:03;;;;;;;12.20;9.00;;;;;;;2.67;62.35;101218.44;184741;1232;58211;-80
2024/01/21 18:05:05;;;;;;;17.30;10.20;;;;;;;2.69;62.19;101210.32;184057;1232;46080;-80
2024/01/21 18:09:27;;;;;;;15.60;9.00;;;;;;;2.76;62.22;101217.45;184631;1232;46099;-80
2024/01/21 18:13:29;;;;;;;11.40;7.80;;;;;;;2.75;62.22;101214.85;183982;1232;44341;-80
2024/01/21 18:17:31;;;;;;;14.30;7.80;;;;;;;2.72;61.78;101204.24;184373;1232;44177;-80
2024/01/21 18:21:33;;;;;;;16.00;8.30;;;;;;;2.73;61.82;101202.13;183867;1232;59251;-80
2024/01/21 18:25:35;;;;;;;14.20;7.60;;;;;;;2.71;62.19;101196.23;185878;1232;43711;-80
2024/01/21 18:29:36;;;;;;;13.40;8.20;;;;;;;2.69;62.90;101197.17;185120;1236;46078;-80